TimeCDT,TemperatureF,Dew PointF,Humidity,Sea Level PressureIn,VisibilityMPH,Wind Direction,Wind SpeedMPH,Gust SpeedMPH,PrecipitationIn,Events,Conditions,WindDirDegrees,DateUTC
12:15 AM,15.8,8.6,73,29.95,10.0,NW,18.4,24.2,N/A,,Clear,310,2013-03-19 05:15:00
12:35 AM,15.8,8.6,73,29.94,10.0,NW,17.3,25.3,N/A,,Clear,320,2013-03-19 05:35:00
12:55 AM,15.8,6.8,68,29.95,10.0,NW,15.0,20.7,N/A,,Clear,320,2013-03-19 05:55:00
1:15 AM,14.0,6.8,73,29.96,10.0,NW,17.3,-,N/A,,Clear,310,2013-03-19 06:15:00
1:35 AM,14.0,5.0,67,29.98,10.0,WNW,21.9,-,N/A,,Clear,300,2013-03-19 06:35:00
1:55 AM,14.0,6.8,73,29.99,10.0,WNW,18.4,-,N/A,,Clear,290,2013-03-19 06:55:00
2:15 AM,14.0,6.8,73,30.00,10.0,WNW,19.6,-,N/A,,Clear,290,2013-03-19 07:15:00
2:35 AM,14.0,5.0,67,30.00,10.0,WNW,18.4,29.9,N/A,,Clear,300,2013-03-19 07:35:00
2:55 AM,14.0,6.8,73,30.01,10.0,WNW,15.0,24.2,N/A,,Clear,300,2013-03-19 07:55:00
3:15 AM,14.0,5.0,67,30.01,10.0,WNW,17.3,26.5,N/A,,Clear,300,2013-03-19 08:15:00
3:35 AM,14.0,5.0,67,30.02,10.0,WNW,16.1,23.0,N/A,,Clear,300,2013-03-19 08:35:00
3:55 AM,14.0,6.8,73,30.02,10.0,West,15.0,-,N/A,,Clear,280,2013-03-19 08:55:00
4:15 AM,12.2,6.8,79,30.01,10.0,NW,13.8,-,N/A,,Clear,310,2013-03-19 09:15:00
4:35 AM,14.0,5.0,67,30.01,10.0,NW,16.1,21.9,N/A,,Clear,310,2013-03-19 09:35:00
4:55 AM,12.2,5.0,73,30.02,10.0,NW,13.8,-,N/A,,Clear,310,2013-03-19 09:55:00
5:15 AM,12.2,5.0,73,30.02,10.0,NW,13.8,-,N/A,,Clear,310,2013-03-19 10:15:00
5:35 AM,12.2,5.0,73,30.01,10.0,NNW,13.8,-,N/A,,Clear,330,2013-03-19 10:35:00
5:55 AM,12.2,5.0,73,30.03,10.0,NW,10.4,-,N/A,,Clear,320,2013-03-19 10:55:00
6:15 AM,12.2,3.2,67,30.04,10.0,NW,16.1,-,N/A,,Clear,310,2013-03-19 11:15:00
6:35 AM,10.4,3.2,73,30.04,10.0,NW,15.0,-,N/A,,Clear,310,2013-03-19 11:35:00
6:55 AM,10.4,3.2,73,30.05,10.0,WNW,13.8,-,N/A,,Clear,300,2013-03-19 11:55:00
7:15 AM,10.4,1.4,67,30.06,10.0,NW,16.1,-,N/A,,Clear,310,2013-03-19 12:15:00
7:35 AM,10.4,1.4,67,30.06,10.0,NNW,15.0,-,N/A,,Clear,330,2013-03-19 12:35:00
7:55 AM,10.4,3.2,73,30.07,10.0,NW,15.0,-,N/A,,Clear,320,2013-03-19 12:55:00
8:15 AM,12.2,3.2,67,30.08,10.0,NW,10.4,-,N/A,,Clear,310,2013-03-19 13:15:00
8:35 AM,12.2,3.2,67,30.08,10.0,NW,8.1,-,N/A,,Clear,310,2013-03-19 13:35:00
8:55 AM,12.2,3.2,67,30.11,10.0,WNW,10.4,-,N/A,,Clear,300,2013-03-19 13:55:00
9:15 AM,12.2,3.2,67,30.11,10.0,WNW,15.0,-,N/A,,Clear,300,2013-03-19 14:15:00
9:35 AM,14.0,5.0,67,30.11,10.0,NW,10.4,-,N/A,,Clear,320,2013-03-19 14:35:00
9:55 AM,14.0,5.0,67,30.11,10.0,NNW,10.4,-,N/A,,Clear,330,2013-03-19 14:55:00
10:15 AM,15.8,5.0,62,30.11,10.0,NNW,11.5,-,N/A,,Clear,340,2013-03-19 15:15:00
10:35 AM,15.8,5.0,62,30.12,10.0,NNW,9.2,-,N/A,,Clear,340,2013-03-19 15:35:00
10:55 AM,17.6,6.8,63,30.12,10.0,NNW,9.2,-,N/A,,Clear,330,2013-03-19 15:55:00
11:15 AM,17.6,6.8,63,30.12,10.0,NNW,5.8,-,N/A,,Clear,330,2013-03-19 16:15:00
11:35 AM,17.6,6.8,63,30.12,10.0,Variable,3.5,-,N/A,,Clear,0,2013-03-19 16:35:00
11:55 AM,19.4,6.8,58,30.12,10.0,NW,5.8,-,N/A,,Partly Cloudy,320,2013-03-19 16:55:00
12:15 PM,19.4,8.6,63,30.14,10.0,West,8.1,-,N/A,,Scattered Clouds,270,2013-03-19 17:15:00
12:35 PM,21.2,10.4,63,30.15,10.0,West,10.4,-,N/A,,Partly Cloudy,270,2013-03-19 17:35:00
12:55 PM,21.2,10.4,63,30.15,10.0,West,9.2,-,N/A,,Partly Cloudy,280,2013-03-19 17:55:00
1:15 PM,21.2,10.4,63,30.15,10.0,West,9.2,-,N/A,,Partly Cloudy,280,2013-03-19 18:15:00
1:35 PM,23.0,10.4,59,30.15,10.0,West,6.9,-,N/A,,Clear,270,2013-03-19 18:35:00
1:55 PM,23.0,12.2,63,30.14,10.0,West,9.2,-,N/A,,Clear,270,2013-03-19 18:55:00
2:15 PM,24.8,14.0,64,30.13,10.0,West,10.4,-,N/A,,Clear,270,2013-03-19 19:15:00
2:35 PM,24.8,12.2,59,30.13,10.0,West,8.1,15.0,N/A,,Clear,260,2013-03-19 19:35:00
2:55 PM,26.6,14.0,59,30.14,10.0,West,10.4,-,N/A,,Clear,270,2013-03-19 19:55:00
3:15 PM,26.6,14.0,59,30.14,10.0,WNW,9.2,15.0,N/A,,Clear,290,2013-03-19 20:15:00
3:35 PM,26.6,15.8,64,30.14,10.0,West,10.4,-,N/A,,Clear,270,2013-03-19 20:35:00
3:55 PM,28.4,15.8,59,30.14,10.0,West,8.1,-,N/A,,Clear,280,2013-03-19 20:55:00
4:15 PM,28.4,17.6,64,30.14,10.0,NW,9.2,-,N/A,,Clear,310,2013-03-19 21:15:00
4:35 PM,28.4,17.6,64,30.14,10.0,WNW,8.1,-,N/A,,Clear,290,2013-03-19 21:35:00
4:55 PM,28.4,17.6,64,30.14,10.0,NW,8.1,-,N/A,,Clear,310,2013-03-19 21:55:00
5:15 PM,30.2,19.4,64,30.14,10.0,WNW,10.4,-,N/A,,Clear,300,2013-03-19 22:15:00
5:35 PM,30.2,19.4,64,30.14,10.0,NW,8.1,-,N/A,,Clear,310,2013-03-19 22:35:00
5:55 PM,30.2,21.2,69,30.15,10.0,NW,12.7,-,N/A,,Clear,310,2013-03-19 22:55:00
6:15 PM,30.2,21.2,69,30.15,10.0,NW,11.5,-,N/A,,Partly Cloudy,320,2013-03-19 23:15:00
6:35 PM,30.2,19.4,64,30.16,10.0,NNW,13.8,-,N/A,,Clear,330,2013-03-19 23:35:00
7:15 PM,28.4,19.4,69,30.17,10.0,NNW,20.7,26.5,N/A,,Overcast,340,2013-03-20 00:15:00
7:35 PM,26.6,21.2,80,30.18,10.0,NNW,17.3,-,N/A,,Partly Cloudy,340,2013-03-20 00:35:00
7:55 PM,26.6,19.4,74,30.19,10.0,NNW,18.4,-,N/A,,Clear,340,2013-03-20 00:55:00
8:15 PM,24.8,19.4,80,30.19,10.0,NNW,18.4,-,N/A,,Clear,340,2013-03-20 01:15:00
8:35 PM,24.8,19.4,80,30.20,10.0,North,17.3,-,N/A,,Clear,350,2013-03-20 01:35:00
8:55 PM,24.8,19.4,80,30.21,10.0,NNW,17.3,23.0,N/A,,Mostly Cloudy,330,2013-03-20 01:55:00
9:15 PM,23.0,17.6,80,30.22,10.0,NNW,19.6,-,N/A,,Overcast,330,2013-03-20 02:15:00
9:35 PM,23.0,15.8,74,30.22,10.0,NNW,24.2,-,N/A,,Overcast,340,2013-03-20 02:35:00
9:55 PM,23.0,14.0,68,30.23,10.0,NNW,21.9,-,N/A,,Overcast,340,2013-03-20 02:55:00
10:15 PM,21.2,12.2,68,30.24,10.0,North,21.9,-,N/A,,Overcast,350,2013-03-20 03:15:00
10:35 PM,21.2,12.2,68,30.25,10.0,NNW,17.3,24.2,N/A,,Overcast,340,2013-03-20 03:35:00
10:55 PM,19.4,12.2,74,30.25,10.0,NNW,19.6,-,N/A,,Overcast,330,2013-03-20 03:55:00
11:15 PM,17.6,10.4,73,30.26,10.0,NW,23.0,29.9,N/A,,Overcast,320,2013-03-20 04:15:00
11:35 PM,17.6,8.6,68,30.27,10.0,NW,21.9,28.8,N/A,,Scattered Clouds,320,2013-03-20 04:35:00
11:55 PM,15.8,10.4,79,30.27,10.0,NNW,17.3,24.2,N/A,,Scattered Clouds,330,2013-03-20 04:55:00